Wednesday, August 31, 2016, 7:24 PM EDT

KFDK, Frederick, Frederick Municipal Airport

Location: Frederick, MD, United States Lat: 39.417
Local Time: 7:24 PM EDT (23:24 GMT) Lon: -77.374
Time Zone: US/Eastern Elev: 301 ft

Show me the last for .
Show Decoded

2016-08-31 18:47 METAR KFDK 312247Z VRB03KT 10SM CLR 30/23 A2987 =
2016-08-31 17:50 METAR KFDK 312150Z VRB03KT 10SM CLR 31/24 A2989 =
2016-08-31 16:50 METAR KFDK 312050Z VRB03KT 10SM SCT047 BKN050 31/23 A2990 =
2016-08-31 15:50 METAR KFDK 311950Z 16005KT 10SM SCT045 32/23 A2991 =
2016-08-31 14:49 METAR KFDK 311849Z 20004KT 10SM SCT046 BKN060 31/23 A2994 =
2016-08-31 12:50 METAR KFDK 311650Z 23006KT 10SM BKN055 31/23 A2998 =
2016-08-31 11:50 METAR KFDK 311550Z 00000KT 10SM FEW050 29/23 A3000 =
2016-08-31 10:50 METAR KFDK 311450Z 00000KT 10SM CLR 28/23 A3002 =
2016-08-31 09:50 METAR KFDK 311350Z 00000KT 10SM CLR 26/21 A3003 =
2016-08-31 08:45 METAR KFDK 311245Z 00000KT 10SM 21/21 A3004 =
2016-08-31 07:48 METAR KFDK 311148Z 00000KT 10SM SKC 18/18 A3005 =
2016-08-31 06:47 METAR KFDK 311047Z 00000KT 10SM CLR 17/17 A3006 =
2016-08-31 06:10 METAR KFDK 311010Z AUTO 00000KT 7SM CLR 17/17 A3005 RMK AO2 =
2016-08-31 06:00 METAR KFDK 311000Z AUTO 00000KT 1 3/4SM BR VV007 17/17 A3005 RMK AO2 VIS 1/2V5 =
2016-08-31 05:40 METAR KFDK 310940Z AUTO 00000KT 3SM BR CLR 17/17 A3005 RMK AO2 =
2016-08-31 05:20 METAR KFDK 310920Z AUTO 00000KT 4SM BR CLR 17/17 A3005 RMK AO2 =
2016-08-31 05:00 METAR KFDK 310900Z AUTO 00000KT 4SM BR CLR 17/17 A3006 RMK AO2 =
2016-08-31 04:40 METAR KFDK 310840Z AUTO 00000KT 5SM BR CLR 17/17 A3006 RMK AO2 =
2016-08-31 04:20 METAR KFDK 310820Z AUTO 00000KT 1SM BR VV007 17/17 A3007 RMK AO2 VIS 1/2V3 =
2016-08-31 04:00 METAR KFDK 310800Z AUTO 00000KT 7SM CLR 17/17 A3007 RMK AO2 LTG DSNT SE =
2016-08-31 03:40 METAR KFDK 310740Z AUTO 00000KT 7SM CLR 17/17 A3007 RMK AO2 =
2016-08-31 03:20 METAR KFDK 310720Z AUTO 00000KT 5SM BR CLR 17/17 A3007 RMK AO2 =
2016-08-31 03:00 METAR KFDK 310700Z AUTO 00000KT 4SM BR CLR 17/17 A3007 RMK AO2 =
2016-08-31 02:40 METAR KFDK 310640Z AUTO 00000KT 5SM BR CLR 18/18 A3007 RMK AO2 =
2016-08-31 02:20 METAR KFDK 310620Z AUTO 00000KT 3SM BR CLR 17/17 A3007 RMK AO2 LTG DSNT SE =
2016-08-31 02:00 METAR KFDK 310600Z AUTO 00000KT 7SM CLR 18/18 A3007 RMK AO2 =
2016-08-31 01:40 METAR KFDK 310540Z AUTO 00000KT 7SM CLR 18/18 A3008 RMK AO2 =
2016-08-31 01:20 METAR KFDK 310520Z AUTO 00000KT 10SM CLR 18/18 A3009 RMK AO2 =
2016-08-31 01:00 METAR KFDK 310500Z AUTO 00000KT 10SM CLR 18/18 A3009 RMK AO2 =
2016-08-31 00:40 METAR KFDK 310440Z AUTO 00000KT 10SM CLR 18/18 A3009 RMK AO2 =
2016-08-31 00:20 METAR KFDK 310420Z AUTO 00000KT 10SM CLR 19/19 A3009 RMK AO2 =
2016-08-31 00:00 METAR KFDK 310400Z AUTO 00000KT 10SM CLR 20/20 A3009 RMK AO2 =
2016-08-30 23:40 METAR KFDK 310340Z AUTO 00000KT 10SM CLR 19/19 A3008 RMK AO2 =
2016-08-30 23:20 METAR KFDK 310320Z AUTO 00000KT 10SM CLR 20/20 A3008 RMK AO2 =
2016-08-30 23:00 METAR KFDK 310300Z AUTO 00000KT 10SM CLR 19/19 A3008 RMK AO2 =
2016-08-30 22:40 METAR KFDK 310240Z AUTO 00000KT 10SM CLR 20/20 A3008 RMK AO2 LTG DSNT W =
2016-08-30 22:20 METAR KFDK 310220Z AUTO 00000KT 10SM CLR 20/20 A3008 RMK AO2 =
2016-08-30 22:00 METAR KFDK 310200Z AUTO 00000KT 10SM CLR 21/21 A3008 RMK AO2 =
2016-08-30 21:40 METAR KFDK 310140Z AUTO 00000KT 10SM CLR 22/21 A3007 RMK AO2 =
2016-08-30 21:20 METAR KFDK 310120Z AUTO 15003KT 10SM CLR 22/21 A3007 RMK AO2 =
2016-08-30 21:00 METAR KFDK 310100Z AUTO 12004KT 10SM CLR 22/22 A3007 RMK AO2 LTG DSNT W =
2016-08-30 20:40 METAR KFDK 310040Z AUTO 00000KT 10SM CLR 22/21 A3007 RMK AO2 =
2016-08-30 20:20 METAR KFDK 310020Z AUTO 14004KT 10SM CLR 22/21 A3006 RMK AO2 =
2016-08-30 19:50 METAR KFDK 302350Z 00000KT 10SM CLR 27/20 A3005 =

Support USWX by starting your Amazon purchase here.